• Join FlightAware (Why Join?)
  • Login
  • US Flag 
09:27AM EST


 

Airport Tracker/Info


-or-


 

Live Flight TrackerFlight Track Log ✈ SWA1 ✈ 24-Apr-2013 ✈ KBWI - KIND

Flight Track Log - Related Links

Times and Time Zones

All times are in EDT time to prevent confusion due to time zone crossing. See the SWA1 flight status page for this flight to view local times or setup timezone preferences in your user account.

Time Position Orientation Groundspeed Altitude Reporting Facility
EDT Latitude Longitude Course Direction KTS MPH feet Rate Location/Type
06:02PM 39.1667 -76.7167 303° West 254 292 3,800  Level Potomac TRACON
06:03PM 39.1833 -76.8167 282° West 245 282 7,100 3,240 Climbing Potomac TRACON
06:04PM 39.2000 -76.8833 288° West 233 268 9,700 2,760 Climbing Potomac TRACON
06:05PM 39.2167 -76.9667 284° West 253 291 12,500 2,400 Climbing Potomac TRACON
06:06PM 39.2167 -77.0500 270° West 247 284 14,800 1,620 Climbing Potomac TRACON
06:07PM 39.0901 -77.2393 211° Southwest  Level FlightAware Approximate
06:08PM 39.1128 -77.2394 235° Southwest 301 346 18,100  Level Washington Center
06:09PM 39.0325 -77.3072 213° Southwest 325 374 19,000 480 Climbing Washington Center
06:10PM 38.9894 -77.4075 241° Southwest 320 368 19,100 600 Climbing Washington Center
06:11PM 38.9686 -77.5300 258° West 326 375 20,300 1,200 Climbing Washington Center
06:12PM 38.9478 -77.6603 258° West 359 413 21,600 1,380 Climbing Washington Center
06:13PM 38.9478 -77.7831 270° West 376 433 23,100 1,440 Climbing Washington Center
06:14PM 38.9492 -77.9192 271° West 382 440 24,500 1,380 Climbing Washington Center
06:15PM 38.9550 -78.0556 273° West 388 447 25,900 1,500 Climbing Washington Center
06:16PM 38.9603 -78.1972 273° West 388 447 27,500 1,500 Climbing Washington Center
06:17PM 38.9633 -78.3333 272° West 388 447 28,900 1,080 Climbing Washington Center
06:18PM 38.9686 -78.4697 273° West 388 447 29,700 1,080 Climbing Washington Center
06:19PM 38.9736 -78.6114 273° West 388 447 31,100 1,500 Climbing Washington Center
06:20PM 38.9783 -78.7506 273° West 388 447 32,700 1,380 Climbing Washington Center
06:21PM 38.9811 -78.8761 272° West 382 440 33,900 600 Climbing Washington Center
06:22PM 38.9839 -79.0072 272° West 372 428 34,000  Climbing Washington Center
06:23PM 38.9864 -79.1328 272° West 360 414 34,000  Level Washington Center
06:24PM 38.9908 -79.2611 273° West 360 414 34,000  Level Washington Center
06:25PM 38.9933 -79.3869 272° West 365 420 34,000  Level Washington Center
06:26PM 38.9956 -79.5125 271° West 365 420 34,000  Level Washington Center
06:27PM 39.0011 -79.6544 273° West 365 420 34,000  Level Washington Center
06:28PM 39.0094 -79.7806 275° West 370 426 34,000  Level Washington Center
06:29PM 39.0200 -79.8906 277° West 355 409 34,000  Level Washington Center
06:31PM 39.0417 -80.1344 277° West 347 399 34,000  Level Indianapolis Center
06:32PM 39.0581 -80.2564 280° West 346 398 34,000  Level Indianapolis Center
06:33PM 39.0914 -80.3769 290° West 356 410 34,000  Level Indianapolis Center
06:35PM 39.1219 -80.4964 288° West 354 407 34,000  Level Indianapolis Center
06:36PM 39.1511 -80.6158 288° West 352 405 34,000  Level Indianapolis Center
06:37PM 39.1867 -80.7564 288° West 346 398 34,000  Level Indianapolis Center
06:38PM 39.2169 -80.8750 288° West 348 400 34,000  Level Indianapolis Center
06:39PM 39.2447 -80.9917 287° West 343 395 34,000  Level Indianapolis Center
06:40PM 39.2750 -81.1083 289° West 344 396 34,000  Level Indianapolis Center
06:41PM 39.3031 -81.2258 287° West 345 397 34,000  Level Indianapolis Center
06:42PM 39.3319 -81.3417 288° West 342 394 34,000  Level Indianapolis Center
06:43PM 39.3664 -81.4811 288° West 342 394 34,000  Level Indianapolis Center
06:44PM 39.3933 -81.5967 287° West 339 390 34,000  Level Indianapolis Center
06:45PM 39.4214 -81.7111 288° West 336 387 34,000  Level Indianapolis Center
06:46PM 39.4475 -81.8247 287° West 332 382 34,000  Level Indianapolis Center
06:47PM 39.4744 -81.9372 287° West 330 380 34,000  Level Indianapolis Center
06:48PM 39.5067 -82.0706 287° West 324 373 34,000  Level Indianapolis Center
06:49PM 39.5331 -82.1847 287° West 325 374 34,000  Level Indianapolis Center
06:50PM 39.5597 -82.2956 287° West 320 368 34,000  Level Indianapolis Center
06:51PM 39.5858 -82.4067 287° West 320 368 34,000  Level Indianapolis Center
06:52PM 39.6103 -82.5158 286° West 313 360 34,000  Level Indianapolis Center
06:53PM 39.6367 -82.6250 287° West 315 362 34,000  Level Indianapolis Center
06:54PM 39.6611 -82.7347 286° West 314 361 34,000  Level Indianapolis Center
06:55PM 39.6864 -82.8439 287° West 314 361 34,000 -180 Level Indianapolis Center
06:56PM 39.7150 -82.9700 286° West 311 358 33,700 -720 Descending Indianapolis Center
06:57PM 39.7403 -83.0781 287° West 310 357 32,600 -1,020 Descending Indianapolis Center
06:58PM 39.7642 -83.1853 286° West 308 354 31,700 -960 Descending Indianapolis Center
06:59PM 39.7883 -83.2939 286° West 309 356 30,700 -840 Descending Indianapolis Center
07:00PM 39.8106 -83.3942 286° West 316 364 30,000 -360 Descending Indianapolis Center
07:01PM 39.8417 -83.5297 287° West 325 374 30,000  Level Indianapolis Center
07:02PM 39.8653 -83.6414 285° West 323 372 30,000  Level Indianapolis Center
07:03PM 39.8906 -83.7556 286° West 326 375 30,000  Level Indianapolis Center
07:04PM 39.9158 -83.8692 286° West 324 373 30,000  Level Indianapolis Center
07:05PM 39.9403 -83.9817 286° West 320 368 30,000  Level Indianapolis Center
07:07PM 39.9650 -84.0950 286° West 321 369 30,000  Level Indianapolis Center
07:08PM 39.9894 -84.2081 286° West 321 369 30,000  Level Indianapolis Center
07:09PM 40.0136 -84.3219 286° West 324 373 30,000  Level Indianapolis Center
07:10PM 40.0428 -84.4556 286° West 325 374 30,000  Level Indianapolis Center
07:11PM 40.0664 -84.5736 285° West 330 380 30,000 -540 Level Indianapolis Center
07:12PM 40.0917 -84.6897 286° West 331 381 29,000 -960 Descending Indianapolis Center
07:13PM 40.1133 -84.8075 284° West 330 380 28,100 -1,500 Descending Indianapolis Center
07:14PM 40.1108 -84.9222 268° West 318 366 26,000 -2,100 Descending Indianapolis Center
07:15PM 40.1097 -85.0319 269° West 304 350 23,800 -2,100 Descending Indianapolis Center
07:16PM 40.1081 -85.1333 269° West 282 325 21,700 -2,220 Descending Indianapolis Center
07:17PM 40.1067 -85.2469 269° West 269 310 19,300 -2,220 Descending Indianapolis Center
07:18PM 40.1039 -85.3531 268° West 290 334 17,200 -2,160 Descending Indianapolis Center
07:19PM 40.1039 -85.4644 270° West 304 350 14,900 -1,980 Descending Indianapolis Center
07:20PM 40.0889 -85.5681 259° West 287 330 13,200 -1,680 Descending Indianapolis Center
07:21PM 40.0678 -85.6667 254° West 283 326 11,500 -1,620 Descending Indianapolis Center
07:22PM 40.0492 -85.7583 255° West 264 304 9,900 -1,620 Descending Indianapolis Center
07:23PM 40.0303 -85.8469 254° West 255 293 8,200 -1,620 Descending Indianapolis Center
07:24PM 40.0067 -85.9331 250° West 253 291 6,700 -1,380 Descending Indianapolis Center
07:25PM 39.9508 -86.0072 226° Southwest 246 283 5,400 -840 Descending Indianapolis Center
07:26PM 39.9053 -86.0658 225° Southwest 237 273 5,000 -300 Descending Indianapolis Center
07:27PM 39.8631 -86.1200 225° Southwest 224 258 4,800 -720 Descending Indianapolis Center
07:28PM 39.8500 -86.1500 240° Southwest 185 213 3,900 -1,200 Descending Indianapolis TRACON
07:29PM 39.8000 -86.2000 218° Southwest 185 213 3,000 -960 Descending Indianapolis TRACON
07:30PM 39.7667 -86.2333 218° Southwest 156 180 1,900 -840 Descending Indianapolis TRACON
07:31PM 39.7333 -86.2833 229° Southwest 134 154 1,200 -720 Descending Indianapolis TRACON